Weather at Fayetteville Regional Airport - Grannis Field

Public forecast

Using degrees Fahrenheit for public forecast. Weather courtesy of forecast.io.

Current aviation weather report (METAR) for Fayetteville Regional Airport - Grannis Field

2024/05/28 23:53 (retrieved 37 minutes ago)

KFAY 282353Z 34006KT 10SM CLR 28/14 A2989 RMK AO2 SLP117 T02830139 10322 20283 53008

Closest aviation forecast (TAF) to Fayetteville Regional Airport - Grannis Field

Forecast is more than 6 hours old.

Closest forecast is Simmons Army Air Field, 8.9 nm (16.5 km) NNW.

2024/05/28 17:14 (retrieved 7 hours ago)

TAF KFBG 281700Z 2817/2923 VRB06KT 9999 BKN050 QNH2985INS BECMG 2903/2904 VRB03KT 9999 SKC QNH2996INS BECMG 2914/2915 32010G15KT 9999 SCT050 QNH2991INS TX32/2820Z TN16/2909Z